CDT,Max TemperatureF,Mean TemperatureF,Min TemperatureF,Max Dew PointF,MeanDew PointF,Min DewpointF,Max Humidity, Mean Humidity, Min Humidity, Max Sea Level PressureIn, Mean Sea Level PressureIn, Min Sea Level PressureIn, Max VisibilityMiles, Mean VisibilityMiles, Min VisibilityMiles, Max Wind SpeedMPH, Mean Wind SpeedMPH, Max Gust SpeedMPH,PrecipitationIn, CloudCover, Events, WindDirDegrees
2013-8-1,88,76,64,68,65,64,100,73,46,30.10,30.04,29.96,10,10,6,10,5,14,0.00,0,,95
2013-8-2,90,81,72,75,71,65,88,77,65,29.96,29.90,29.85,10,10,8,18,8,25,0.01,2,,154
2013-8-3,89,79,69,76,71,66,90,75,59,30.07,30.00,29.87,10,8,2,31,7,44,0.59,5,Rain-Thunderstorm,71
2013-8-4,76,74,71,72,71,68,100,94,87,30.16,30.07,30.01,10,8,0,15,6,18,1.26,6,Fog-Rain-Thunderstorm,101
2013-8-5,93,82,70,77,73,68,100,80,60,30.03,29.92,29.81,10,9,4,16,7,21,0.16,4,Rain-Thunderstorm,177
2013-8-6,90,80,70,76,74,70,93,79,64,29.97,29.86,29.77,10,9,2,30,8,48,1.37,3,Rain-Thunderstorm,165
2013-8-7,83,78,72,74,72,70,94,82,69,29.92,29.88,29.78,10,10,10,28,6,36,0.06,2,Rain-Thunderstorm,115
2013-8-8,85,78,71,73,72,70,100,83,65,30.02,29.93,29.84,10,8,2,14,6,18,0.61,5,Rain-Thunderstorm,71
2013-8-9,81,74,66,72,69,64,100,84,67,30.08,29.99,29.92,10,9,3,17,5,22,0.30,6,Rain-Thunderstorm,38
2013-8-10,84,76,67,68,66,64,97,74,51,30.15,30.10,30.05,10,8,5,14,5,21,0.00,5,,44
2013-8-11,88,78,68,74,70,66,97,78,59,30.10,30.06,30.00,10,9,4,13,4,62,T,3,,94
2013-8-12,85,78,70,73,70,67,94,80,65,30.09,30.01,29.95,10,8,4,16,3,22,0.24,3,Rain-Thunderstorm,193
2013-8-13,81,73,65,71,67,60,100,81,62,30.08,30.03,29.99,10,9,5,14,4,20,0.00,1,,42
2013-8-14,79,69,59,62,59,56,100,74,47,30.16,30.11,30.07,10,10,10,12,6,17,0.00,1,,72
2013-8-15,79,68,56,58,55,54,93,68,43,30.14,30.09,30.03,10,10,10,12,5,14,0.00,0,,113
2013-8-16,79,69,59,59,57,56,93,71,48,30.14,30.09,30.04,10,10,10,12,4,25,0.00,1,,84
2013-8-17,80,67,54,60,57,54,100,73,45,30.17,30.13,30.08,10,8,1,10,4,15,0.00,1,Fog,54
2013-8-18,84,72,60,64,61,58,97,72,47,30.15,30.10,30.06,10,9,4,10,3,14,0.00,1,,99
2013-8-19,86,73,60,65,61,57,100,70,40,30.12,30.07,30.01,10,9,7,9,4,12,0.00,0,,156
2013-8-20,89,77,65,65,63,59,93,66,39,30.09,30.04,30.01,10,10,10,10,6,31,0.00,1,,171
2013-8-21,90,78,66,69,65,63,87,66,44,30.10,30.06,30.03,10,10,10,14,7,,0.00,0,,182
2013-8-22,92,81,69,71,67,64,84,66,47,30.11,30.06,30.01,10,10,10,9,6,,0.00,0,,180
2013-8-23,92,80,68,69,66,63,93,66,38,30.08,30.04,29.99,10,10,8,9,5,60,0.00,0,,119
2013-8-24,92,82,72,70,69,66,90,67,44,30.14,30.10,30.04,10,10,7,12,7,25,0.00,0,,131
2013-8-25,93,82,70,71,68,66,90,67,44,30.20,30.15,30.12,10,9,6,10,7,,0.00,1,,154
2013-8-26,91,82,73,71,70,68,87,69,50,30.20,30.14,30.09,10,10,10,15,8,20,0.00,0,,197
2013-8-27,91,81,70,70,66,61,87,63,38,30.11,30.07,30.02,10,10,10,26,9,18,0.00,0,,190
2013-8-28,92,81,69,70,68,65,84,66,47,30.07,30.03,30.01,10,10,10,18,7,18,0.00,0,,189
2013-8-29,95,84,73,71,69,66,84,62,39,30.05,30.01,29.97,10,10,10,14,6,,0.00,0,,189
2013-8-30,96,85,74,71,69,67,82,62,42,29.99,29.93,29.85,10,10,10,15,8,20,0.00,0,,189
2013-8-31,97,86,74,72,69,67,82,61,40,29.88,29.83,29.78,10,10,10,17,9,,0.00,0,,189